createdAt,value
2017-11-19T00:00:12.177Z,2.87
2017-11-19T00:02:40.435Z,3.20
2017-11-19T00:05:07.975Z,3.87
2017-11-19T00:07:35.499Z,4.20
2017-11-19T00:10:03.060Z,3.60
2017-11-19T00:12:30.595Z,4.20
2017-11-19T00:14:58.916Z,3.55
2017-11-19T00:17:26.442Z,3.40
2017-11-19T00:19:54.770Z,3.10
2017-11-19T00:22:22.293Z,3.00
2017-11-19T00:24:49.859Z,2.87
2017-11-19T00:27:17.386Z,2.72
2017-11-19T00:29:45.679Z,3.08
2017-11-19T00:32:13.230Z,2.90
2017-11-19T00:34:40.761Z,3.60
2017-11-19T00:37:08.307Z,4.07
2017-11-19T00:39:35.823Z,3.83
2017-11-19T00:42:03.370Z,3.40
2017-11-19T00:44:31.674Z,3.35
2017-11-19T00:46:59.249Z,3.53
2017-11-19T00:49:26.793Z,4.40
2017-11-19T00:51:54.348Z,3.80
2017-11-19T00:54:21.872Z,4.12
2017-11-19T00:56:51.149Z,3.72
2017-11-19T00:59:19.446Z,3.92
2017-11-19T01:01:46.992Z,3.62
2017-11-19T01:04:14.542Z,3.90
2017-11-19T01:06:42.848Z,3.78
2017-11-19T01:09:10.411Z,3.65
2017-11-19T01:11:37.951Z,4.40
2017-11-19T01:14:05.501Z,3.80
2017-11-19T01:16:33.815Z,4.35
2017-11-19T01:19:01.363Z,4.60
2017-11-19T01:21:28.894Z,4.35
2017-11-19T01:23:57.217Z,4.57
2017-11-19T01:26:24.745Z,3.92
2017-11-19T01:28:52.294Z,3.92
2017-11-19T01:31:20.593Z,2.65
2017-11-19T01:33:48.133Z,2.58
2017-11-19T01:36:15.845Z,3.67
2017-11-19T01:38:43.370Z,2.45
2017-11-19T01:41:10.918Z,1.92
2017-11-19T01:43:38.450Z,2.20
2017-11-19T01:46:06.005Z,1.95
2017-11-19T01:48:33.554Z,1.80
2017-11-19T01:51:01.123Z,1.73
2017-11-19T01:53:28.654Z,1.80
2017-11-19T01:55:56.974Z,1.80
2017-11-19T01:58:24.502Z,1.80
2017-11-19T02:00:52.043Z,1.40
2017-11-19T02:03:20.362Z,1.50
2017-11-19T02:05:47.891Z,1.87
2017-11-19T02:08:16.198Z,1.90
2017-11-19T02:10:43.715Z,1.20
2017-11-19T02:13:12.034Z,1.35
2017-11-19T02:15:39.570Z,1.50
2017-11-19T02:18:07.114Z,1.20
2017-11-19T02:20:35.441Z,1.12
2017-11-19T02:23:02.983Z,1.20
2017-11-19T02:25:30.548Z,1.02
2017-11-19T02:27:58.094Z,1.37
2017-11-19T02:30:25.613Z,1.27
2017-11-19T02:32:53.174Z,1.00
2017-11-19T02:35:20.714Z,1.00
2017-11-19T02:37:48.287Z,1.23
2017-11-19T02:40:15.829Z,1.30
2017-11-19T02:42:43.378Z,0.90
2017-11-19T02:45:10.920Z,1.10
2017-11-19T02:47:38.463Z,1.00
2017-11-19T02:50:06.017Z,1.00
2017-11-19T02:52:34.333Z,1.20
2017-11-19T02:55:01.875Z,1.52
2017-11-19T02:57:29.413Z,0.90
2017-11-19T02:59:56.975Z,1.20
2017-11-19T03:02:24.516Z,1.10
2017-11-19T03:04:52.832Z,0.90
2017-11-19T03:07:20.363Z,0.80
2017-11-19T03:09:48.661Z,0.82
2017-11-19T03:12:16.219Z,0.90
2017-11-19T03:14:43.770Z,1.00
2017-11-19T03:17:11.311Z,0.90
2017-11-19T03:19:39.598Z,1.20
2017-11-19T03:22:07.154Z,0.90
2017-11-19T03:24:35.454Z,0.80
2017-11-19T03:27:03.023Z,0.80
2017-11-19T03:29:30.552Z,0.80
2017-11-19T03:31:58.939Z,1.30
2017-11-19T03:34:26.486Z,0.75
2017-11-19T03:36:54.782Z,0.82
2017-11-19T03:39:22.333Z,0.85
2017-11-19T03:41:50.653Z,0.68
2017-11-19T03:44:18.214Z,0.73
2017-11-19T03:46:45.789Z,0.80
2017-11-19T03:49:13.328Z,0.95
2017-11-19T03:51:40.870Z,0.60
2017-11-19T03:54:08.410Z,0.77
2017-11-19T03:56:35.951Z,0.70
2017-11-19T03:59:04.279Z,0.93
2017-11-19T04:01:31.834Z,0.80
2017-11-19T04:04:00.261Z,0.90
2017-11-19T04:06:28.589Z,0.90
2017-11-19T04:08:56.126Z,0.75
2017-11-19T04:11:23.670Z,0.70
2017-11-19T04:13:51.967Z,0.73
2017-11-19T04:16:19.500Z,0.70
2017-11-19T04:18:47.813Z,0.70
2017-11-19T04:21:15.355Z,0.70
2017-11-19T04:23:43.657Z,0.93
2017-11-19T04:26:11.204Z,0.70
2017-11-19T04:28:38.742Z,0.80
2017-11-19T04:31:07.034Z,0.70
2017-11-19T04:33:34.594Z,0.60
2017-11-19T04:36:02.124Z,0.70
2017-11-19T04:38:29.666Z,0.80
2017-11-19T04:40:57.221Z,0.90
2017-11-19T04:43:24.770Z,0.60
2017-11-19T04:45:52.299Z,0.70
2017-11-19T04:48:19.838Z,0.70
2017-11-19T04:50:48.156Z,0.80
2017-11-19T04:53:15.698Z,0.60
2017-11-19T04:55:43.251Z,0.70
2017-11-19T04:58:10.782Z,0.70
2017-11-19T05:00:39.091Z,0.65
2017-11-19T05:03:06.630Z,0.68
2017-11-19T05:05:34.946Z,0.60
2017-11-19T05:08:02.478Z,0.60
2017-11-19T05:10:30.060Z,0.55
2017-11-19T05:12:57.582Z,0.70
2017-11-19T05:15:25.137Z,0.70
2017-11-19T05:17:53.458Z,0.80
2017-11-19T05:20:20.991Z,0.60
2017-11-19T05:22:48.540Z,0.60
2017-11-19T05:25:16.832Z,0.65
2017-11-19T05:27:44.375Z,0.62
2017-11-19T05:30:12.671Z,0.65
2017-11-19T05:32:40.244Z,0.50
2017-11-19T05:35:07.779Z,0.57
2017-11-19T05:37:36.092Z,0.70
2017-11-19T05:40:03.618Z,0.60
2017-11-19T05:42:31.166Z,0.60
2017-11-19T05:44:59.477Z,0.60
2017-11-19T05:47:27.006Z,0.60
2017-11-19T05:49:55.310Z,0.70
2017-11-19T05:52:22.838Z,0.70
2017-11-19T05:54:51.163Z,0.70
2017-11-19T05:57:18.705Z,0.62
2017-11-19T05:59:47.763Z,0.60
2017-11-19T06:02:15.295Z,0.60
2017-11-19T06:04:42.839Z,0.60
2017-11-19T06:07:10.382Z,0.62
2017-11-19T06:09:37.943Z,0.62
2017-11-19T06:12:05.477Z,0.70
2017-11-19T06:14:33.035Z,0.70
2017-11-19T06:17:00.590Z,0.80
2017-11-19T06:19:28.163Z,0.70
2017-11-19T06:21:55.689Z,0.70
2017-11-19T06:24:23.995Z,0.70
2017-11-19T06:26:51.541Z,0.80
2017-11-19T06:29:19.082Z,0.85
2017-11-19T06:31:47.399Z,0.65
2017-11-19T06:34:14.941Z,0.90
2017-11-19T06:36:42.491Z,0.90
2017-11-19T06:39:10.018Z,1.30
2017-11-19T06:41:37.554Z,1.40
2017-11-19T06:44:05.074Z,1.35
2017-11-19T06:46:32.619Z,1.42
2017-11-19T06:49:00.927Z,1.40
2017-11-19T06:51:28.462Z,1.45
2017-11-19T06:53:55.995Z,1.75
2017-11-19T06:56:24.321Z,2.00
2017-11-19T06:58:51.843Z,2.08
2017-11-19T07:01:20.174Z,1.98
2017-11-19T07:03:47.715Z,1.98
2017-11-19T07:06:15.249Z,1.75
2017-11-19T07:08:42.834Z,1.80
2017-11-19T07:11:10.366Z,1.80
2017-11-19T07:13:38.678Z,1.77
2017-11-19T07:16:06.210Z,2.15
2017-11-19T07:18:33.767Z,1.87
2017-11-19T07:21:01.329Z,1.50
2017-11-19T07:23:28.870Z,1.50
2017-11-19T07:25:57.211Z,2.05
2017-11-19T07:28:24.766Z,1.52
2017-11-19T07:30:52.318Z,1.75
2017-11-19T07:33:19.859Z,1.65
2017-11-19T07:35:47.414Z,2.22
2017-11-19T07:38:14.937Z,1.42
2017-11-19T07:40:43.293Z,2.15
2017-11-19T07:43:10.820Z,1.48
2017-11-19T07:45:38.341Z,1.37
2017-11-19T07:48:06.668Z,1.60
2017-11-19T07:50:34.223Z,1.30
2017-11-19T07:53:01.794Z,1.30
2017-11-19T07:55:29.326Z,1.45
2017-11-19T07:57:56.875Z,1.00
2017-11-19T08:00:24.406Z,1.10
2017-11-19T08:02:51.957Z,1.10
2017-11-19T08:05:19.486Z,0.80
2017-11-19T08:07:47.028Z,1.08
2017-11-19T08:10:14.578Z,1.20
2017-11-19T08:12:42.105Z,1.17
2017-11-19T08:15:09.650Z,1.80
2017-11-19T08:17:37.175Z,2.35
2017-11-19T08:20:04.839Z,3.95
2017-11-19T08:22:32.366Z,3.42
2017-11-19T08:24:59.918Z,3.50
2017-11-19T08:27:28.232Z,2.20
2017-11-19T08:29:55.781Z,1.27
2017-11-19T08:32:23.302Z,1.60
2017-11-19T08:34:52.395Z,1.48
2017-11-19T08:37:19.914Z,1.87
2017-11-19T08:39:47.434Z,1.35
2017-11-19T08:42:15.743Z,1.50
2017-11-19T08:44:43.293Z,1.40
2017-11-19T08:47:10.860Z,1.00
2017-11-19T08:49:38.414Z,1.50
2017-11-19T08:52:05.963Z,1.30
2017-11-19T08:54:33.492Z,1.30
2017-11-19T08:57:01.042Z,1.10
2017-11-19T08:59:28.593Z,1.20
2017-11-19T09:01:56.142Z,1.30
2017-11-19T09:04:23.694Z,0.90
2017-11-19T09:06:51.236Z,1.30
2017-11-19T09:09:18.791Z,1.10
2017-11-19T09:11:46.337Z,1.00
2017-11-19T09:14:13.904Z,1.20
2017-11-19T09:16:41.461Z,1.27
2017-11-19T09:19:09.007Z,1.23
2017-11-19T09:21:37.297Z,1.10
2017-11-19T09:24:04.845Z,1.60
2017-11-19T09:26:33.166Z,1.45
2017-11-19T09:29:00.702Z,1.45
2017-11-19T09:31:28.241Z,1.70
2017-11-19T09:33:56.562Z,1.17
2017-11-19T09:36:24.116Z,1.20
2017-11-19T09:38:51.642Z,1.30
2017-11-19T09:41:19.958Z,1.05
2017-11-19T09:43:47.499Z,1.85
2017-11-19T09:46:15.051Z,1.25
2017-11-19T09:48:42.591Z,1.25
2017-11-19T09:51:11.795Z,1.40
2017-11-19T09:53:40.155Z,1.33
2017-11-19T09:56:07.707Z,1.42
2017-11-19T09:58:36.037Z,1.40
2017-11-19T10:01:03.604Z,1.60
2017-11-19T10:03:31.139Z,1.50
2017-11-19T10:05:58.667Z,1.70
2017-11-19T10:08:26.989Z,1.77
2017-11-19T10:10:54.540Z,1.95
2017-11-19T10:13:22.112Z,2.00
2017-11-19T10:15:49.642Z,2.08
2017-11-19T10:18:17.942Z,1.85
2017-11-19T10:20:45.496Z,1.90
2017-11-19T10:23:13.052Z,2.20
2017-11-19T10:25:40.579Z,2.00
2017-11-19T10:28:08.114Z,1.60
2017-11-19T10:30:35.662Z,2.12
2017-11-19T10:33:03.199Z,1.92
2017-11-19T10:35:30.765Z,2.10
2017-11-19T10:37:58.291Z,2.65
2017-11-19T10:40:26.711Z,2.40
2017-11-19T10:42:54.287Z,2.17
2017-11-19T10:45:21.830Z,1.77
2017-11-19T10:47:49.366Z,1.60
2017-11-19T10:50:16.894Z,1.58
2017-11-19T10:52:44.461Z,1.75
2017-11-19T10:55:12.769Z,1.20
2017-11-19T10:57:40.334Z,1.70
2017-11-19T11:00:07.867Z,1.90
2017-11-19T11:02:36.186Z,1.60
2017-11-19T11:05:03.737Z,1.92
2017-11-19T11:07:31.326Z,1.73
2017-11-19T11:09:59.158Z,1.67
2017-11-19T11:12:26.714Z,1.55
2017-11-19T11:14:54.280Z,1.95
2017-11-19T11:17:21.845Z,1.48
2017-11-19T11:19:49.394Z,1.30
2017-11-19T11:22:16.970Z,1.62
2017-11-19T11:24:44.515Z,1.33
2017-11-19T11:27:12.082Z,1.15
2017-11-19T11:29:39.619Z,1.15
2017-11-19T11:32:07.206Z,1.50
2017-11-19T11:34:34.746Z,1.52
2017-11-19T11:37:02.315Z,1.10
2017-11-19T11:39:29.845Z,1.27
2017-11-19T11:41:58.178Z,1.73
2017-11-19T11:44:25.721Z,1.40
2017-11-19T11:46:53.262Z,1.60
2017-11-19T11:49:20.838Z,1.67
2017-11-19T11:51:49.048Z,1.70
2017-11-19T11:54:16.606Z,2.28
2017-11-19T11:56:44.193Z,1.55
2017-11-19T11:59:12.534Z,1.27
2017-11-19T12:01:40.103Z,1.30
2017-11-19T12:04:07.673Z,1.07
2017-11-19T12:06:36.725Z,1.15
2017-11-19T12:09:04.327Z,1.45
2017-11-19T12:11:31.951Z,1.33
2017-11-19T12:14:00.742Z,1.40
2017-11-19T12:16:29.447Z,1.50
2017-11-19T12:18:57.008Z,1.73
2017-11-19T12:21:24.558Z,1.50
2017-11-19T12:23:52.090Z,1.40
2017-11-19T12:26:19.667Z,1.30
2017-11-19T12:28:47.211Z,1.67
2017-11-19T12:31:14.768Z,1.20
2017-11-19T12:33:42.331Z,1.40
2017-11-19T12:36:09.881Z,1.05
2017-11-19T12:38:37.462Z,2.03
2017-11-19T12:41:05.010Z,1.45
2017-11-19T12:43:32.558Z,1.20
2017-11-19T12:46:00.106Z,1.08
2017-11-19T12:48:28.427Z,1.30
2017-11-19T12:50:55.950Z,1.67
2017-11-19T12:53:24.274Z,1.30
2017-11-19T12:55:51.795Z,1.30
2017-11-19T12:58:19.376Z,1.30
2017-11-19T13:00:46.911Z,1.10
2017-11-19T13:03:14.478Z,1.30
2017-11-19T13:05:42.027Z,1.62
2017-11-19T13:08:09.590Z,1.08
2017-11-19T13:10:37.178Z,1.20
2017-11-19T13:13:04.707Z,1.55
2017-11-19T13:15:32.293Z,1.00
2017-11-19T13:17:59.905Z,1.25
2017-11-19T13:20:28.226Z,1.17
2017-11-19T13:22:55.757Z,1.30
2017-11-19T13:25:24.072Z,1.20
2017-11-19T13:27:51.866Z,2.03
2017-11-19T13:30:19.443Z,1.65
2017-11-19T13:32:46.963Z,1.87
2017-11-19T13:35:14.498Z,2.15
2017-11-19T13:37:42.067Z,1.60
2017-11-19T13:40:10.419Z,1.87
2017-11-19T13:42:37.967Z,1.50
2017-11-19T13:45:05.519Z,1.85
2017-11-19T13:47:33.080Z,1.25
2017-11-19T13:50:00.620Z,1.80
2017-11-19T13:52:28.206Z,1.70
2017-11-19T13:54:55.740Z,1.27
2017-11-19T13:57:23.295Z,1.77
2017-11-19T13:59:50.827Z,1.40
2017-11-19T14:02:19.165Z,1.60
2017-11-19T14:04:46.705Z,1.30
2017-11-19T14:07:14.280Z,1.30
2017-11-19T14:09:41.861Z,1.30
2017-11-19T14:12:10.165Z,1.50
2017-11-19T14:14:37.716Z,1.62
2017-11-19T14:17:06.026Z,1.10
2017-11-19T14:19:33.584Z,1.30
2017-11-19T14:22:01.118Z,1.17
2017-11-19T14:24:29.441Z,1.50
2017-11-19T14:26:57.447Z,1.20
2017-11-19T14:29:25.773Z,1.30
2017-11-19T14:31:53.377Z,1.55
2017-11-19T14:34:20.909Z,1.27
2017-11-19T14:36:48.563Z,1.35
2017-11-19T14:39:16.133Z,1.35
2017-11-19T14:41:44.492Z,1.37
2017-11-19T14:44:12.018Z,2.05
2017-11-19T14:46:39.591Z,1.67
2017-11-19T14:49:07.131Z,1.90
2017-11-19T14:51:35.428Z,1.23
2017-11-19T14:54:03.747Z,1.35
2017-11-19T14:56:31.328Z,2.58
2017-11-19T14:58:58.882Z,1.75
2017-11-19T15:01:26.436Z,1.42
2017-11-19T15:03:54.002Z,2.12
2017-11-19T15:06:21.559Z,1.45
2017-11-19T15:08:49.159Z,1.85
2017-11-19T15:11:17.514Z,1.73
2017-11-19T15:13:45.022Z,2.12
2017-11-19T15:16:12.554Z,1.70
2017-11-19T15:18:40.895Z,1.65
2017-11-19T15:21:08.439Z,1.73
2017-11-19T15:23:35.992Z,1.60
2017-11-19T15:26:03.534Z,1.80
2017-11-19T15:28:31.085Z,1.70
2017-11-19T15:30:58.654Z,1.83
2017-11-19T15:33:26.210Z,1.95
2017-11-19T15:35:53.765Z,2.58
2017-11-19T15:38:21.311Z,3.30
2017-11-19T15:40:49.651Z,2.10
2017-11-19T15:43:17.205Z,2.20
2017-11-19T15:45:44.762Z,2.30
2017-11-19T15:48:13.143Z,2.12
2017-11-19T15:50:40.708Z,2.80
2017-11-19T15:53:08.268Z,2.37
2017-11-19T15:55:35.831Z,2.20
2017-11-19T15:58:03.388Z,2.08
2017-11-19T16:00:30.937Z,2.30
2017-11-19T16:02:58.496Z,2.15
2017-11-19T16:05:26.048Z,2.50
2017-11-19T16:07:53.618Z,2.42
2017-11-19T16:10:21.153Z,2.20
2017-11-19T16:12:48.711Z,3.10
2017-11-19T16:15:16.233Z,2.17
2017-11-19T16:17:43.789Z,2.62
2017-11-19T16:20:11.355Z,3.60
2017-11-19T16:22:38.918Z,2.60
2017-11-19T16:25:07.239Z,2.42
2017-11-19T16:27:34.912Z,1.98
2017-11-19T16:30:02.472Z,2.30
2017-11-19T16:32:30.029Z,2.00
2017-11-19T16:34:57.584Z,2.00
2017-11-19T16:37:25.118Z,2.05
2017-11-19T16:39:53.450Z,2.12
2017-11-19T16:42:20.975Z,2.05
2017-11-19T16:44:48.557Z,2.22
2017-11-19T16:47:16.105Z,1.98
2017-11-19T16:49:43.686Z,2.20
2017-11-19T16:52:11.233Z,2.03
2017-11-19T16:54:38.806Z,2.17
2017-11-19T16:57:06.371Z,1.85
2017-11-19T16:59:33.908Z,1.85
2017-11-19T17:02:01.471Z,2.95
2017-11-19T17:04:29.030Z,2.42
2017-11-19T17:06:56.589Z,2.60
2017-11-19T17:09:24.144Z,1.85
2017-11-19T17:11:51.698Z,2.72
2017-11-19T17:14:19.220Z,2.05
2017-11-19T17:16:47.578Z,3.30
2017-11-19T17:19:15.152Z,2.50
2017-11-19T17:21:42.701Z,3.22
2017-11-19T17:24:10.244Z,2.87
2017-11-19T17:26:37.795Z,2.60
2017-11-19T17:29:05.345Z,3.62
2017-11-19T17:31:32.913Z,3.08
2017-11-19T17:34:00.476Z,3.45
2017-11-19T17:36:33.514Z,3.40
2017-11-19T17:39:01.827Z,3.12
2017-11-19T17:41:29.382Z,3.50
2017-11-19T17:43:56.945Z,3.70
2017-11-19T17:46:24.512Z,4.65
2017-11-19T17:48:52.084Z,4.07
2017-11-19T17:51:19.663Z,3.58
2017-11-19T17:53:47.188Z,4.00
2017-11-19T17:56:14.755Z,4.35
2017-11-19T17:58:42.298Z,4.45
2017-11-19T18:01:09.847Z,3.80
2017-11-19T18:03:37.401Z,4.78
2017-11-19T18:06:04.963Z,3.50
2017-11-19T18:08:33.270Z,6.07
2017-11-19T18:11:00.880Z,3.92
2017-11-19T18:13:28.437Z,4.93
2017-11-19T18:15:55.988Z,3.70
2017-11-19T18:18:24.316Z,4.37
2017-11-19T18:20:51.871Z,3.53
2017-11-19T18:23:19.553Z,3.90
2017-11-19T18:25:47.078Z,4.82
2017-11-19T18:28:14.641Z,5.20
2017-11-19T18:30:42.249Z,4.50
2017-11-19T18:33:09.813Z,4.85
2017-11-19T18:35:37.362Z,7.60
2017-11-19T18:38:04.922Z,5.80
2017-11-19T18:40:32.454Z,4.95
2017-11-19T18:43:00.007Z,5.00
2017-11-19T18:45:27.549Z,4.10
2017-11-19T18:47:55.878Z,4.28
2017-11-19T18:50:23.407Z,4.05
2017-11-19T18:52:50.954Z,3.28
2017-11-19T18:55:18.494Z,4.43
2017-11-19T18:57:46.795Z,3.70
2017-11-19T19:00:14.387Z,3.20
2017-11-19T19:02:41.935Z,3.50
2017-11-19T19:05:09.515Z,4.47
2017-11-19T19:07:37.052Z,3.45
2017-11-19T19:10:04.613Z,3.58
2017-11-19T19:12:32.154Z,3.70
2017-11-19T19:14:59.711Z,3.37
2017-11-19T19:17:27.261Z,3.33
2017-11-19T19:19:55.569Z,3.78
2017-11-19T19:22:23.155Z,3.65
2017-11-19T19:24:50.680Z,2.53
2017-11-19T19:27:18.246Z,3.90
2017-11-19T19:29:45.806Z,3.47
2017-11-19T19:32:13.417Z,3.00
2017-11-19T19:34:41.737Z,3.78
2017-11-19T19:37:09.278Z,3.85
2017-11-19T19:39:37.589Z,3.42
2017-11-19T19:42:05.144Z,3.25
2017-11-19T19:44:32.695Z,3.17
2017-11-19T19:47:00.242Z,3.67
2017-11-19T19:49:27.798Z,3.67
2017-11-19T19:51:55.339Z,3.10
2017-11-19T19:54:23.697Z,3.65
2017-11-19T19:56:51.229Z,3.22
2017-11-19T19:59:19.569Z,3.22
2017-11-19T20:01:47.164Z,3.80
2017-11-19T20:04:15.458Z,3.05
2017-11-19T20:06:43.021Z,3.28
2017-11-19T20:09:10.574Z,3.70
2017-11-19T20:11:38.123Z,2.97
2017-11-19T20:14:06.448Z,4.75
2017-11-19T20:16:34.015Z,3.30
2017-11-19T20:19:01.584Z,3.50
2017-11-19T20:21:29.216Z,3.40
2017-11-19T20:23:56.755Z,4.07
2017-11-19T20:26:24.330Z,3.15
2017-11-19T20:28:51.865Z,3.70
2017-11-19T20:31:20.205Z,3.22
2017-11-19T20:33:47.740Z,2.70
2017-11-19T20:36:15.317Z,3.08
2017-11-19T20:38:42.875Z,2.53
2017-11-19T20:41:10.445Z,3.87
2017-11-19T20:43:37.986Z,2.62
2017-11-19T20:46:05.510Z,2.85
2017-11-19T20:48:33.059Z,2.75
2017-11-19T20:51:01.354Z,3.62
2017-11-19T20:53:28.926Z,2.97
2017-11-19T20:55:56.454Z,3.40
2017-11-19T20:58:24.779Z,3.30
2017-11-19T21:00:52.379Z,3.00
2017-11-19T21:03:20.701Z,3.30
2017-11-19T21:05:48.233Z,3.40
2017-11-19T21:08:15.766Z,3.40
2017-11-19T21:10:43.306Z,4.22
2017-11-19T21:13:10.849Z,3.50
2017-11-19T21:15:38.405Z,4.22
2017-11-19T21:18:05.941Z,3.12
2017-11-19T21:20:33.523Z,3.25
2017-11-19T21:23:01.062Z,3.35
2017-11-19T21:25:28.610Z,3.65
2017-11-19T21:27:56.922Z,2.85
2017-11-19T21:30:24.489Z,2.45
2017-11-19T21:32:52.023Z,3.30
2017-11-19T21:35:19.547Z,3.25
2017-11-19T21:37:47.867Z,3.10
2017-11-19T21:40:15.423Z,3.33
2017-11-19T21:42:42.962Z,2.97
2017-11-19T21:45:11.274Z,2.70
2017-11-19T21:47:38.825Z,3.60
2017-11-19T21:50:06.357Z,2.87
2017-11-19T21:52:34.687Z,3.33
2017-11-19T21:55:02.240Z,3.08
2017-11-19T21:57:29.850Z,2.50
2017-11-19T21:59:58.159Z,3.28
2017-11-19T22:02:25.753Z,3.08
2017-11-19T22:04:53.324Z,2.80
2017-11-19T22:07:20.854Z,2.97
2017-11-19T22:09:48.407Z,2.50
2017-11-19T22:12:15.960Z,3.60
2017-11-19T22:14:43.525Z,3.00
2017-11-19T22:17:11.067Z,2.90
2017-11-19T22:19:38.616Z,3.22
2017-11-19T22:22:06.153Z,3.50
2017-11-19T22:24:33.722Z,2.83
2017-11-19T22:27:02.017Z,3.08
2017-11-19T22:29:29.568Z,3.42
2017-11-19T22:31:57.865Z,3.12
2017-11-19T22:34:25.415Z,3.25
2017-11-19T22:36:52.963Z,3.08
2017-11-19T22:39:21.279Z,3.35
2017-11-19T22:41:48.835Z,3.00
2017-11-19T22:44:16.358Z,3.00
2017-11-19T22:46:44.668Z,3.50
2017-11-19T22:49:12.237Z,3.00
2017-11-19T22:51:39.764Z,2.90
2017-11-19T22:54:07.322Z,2.33
2017-11-19T22:56:34.860Z,2.62
2017-11-19T22:59:02.431Z,2.80
2017-11-19T23:01:29.966Z,2.90
2017-11-19T23:03:58.279Z,3.12
2017-11-19T23:06:25.818Z,3.17
2017-11-19T23:08:53.626Z,3.33
2017-11-19T23:11:21.154Z,2.78
2017-11-19T23:13:48.701Z,2.33
2017-11-19T23:16:16.290Z,2.72
2017-11-19T23:18:43.822Z,2.67
2017-11-19T23:21:11.367Z,3.00
2017-11-19T23:23:39.666Z,2.35
2017-11-19T23:26:07.237Z,2.80
2017-11-19T23:28:35.015Z,2.50
2017-11-19T23:31:02.563Z,3.05
2017-11-19T23:33:30.129Z,2.30
2017-11-19T23:35:57.688Z,2.55
2017-11-19T23:38:25.248Z,2.65
2017-11-19T23:40:52.828Z,3.05
2017-11-19T23:43:20.354Z,2.58
2017-11-19T23:45:47.899Z,2.30
2017-11-19T23:48:15.434Z,2.67
2017-11-19T23:50:43.762Z,2.70
2017-11-19T23:53:11.423Z,2.37
2017-11-19T23:55:38.958Z,2.62
2017-11-19T23:58:06.521Z,2.53
